createdAt,value
2018-04-24T04:09:19.856Z,92
2018-04-24T04:09:45.334Z,96
2018-04-24T04:10:10.791Z,100
2018-04-24T04:10:36.282Z,104
2018-04-24T04:11:01.741Z,108
2018-04-24T04:11:27.196Z,108
2018-04-24T04:11:52.658Z,112
2018-04-24T04:12:18.227Z,112
2018-04-24T04:12:43.631Z,116
2018-04-24T04:13:09.056Z,120
2018-04-24T04:13:34.551Z,124
2018-04-24T04:14:00.007Z,128
2018-04-24T04:14:25.540Z,132
2018-04-24T04:14:50.912Z,136
2018-04-24T04:15:16.365Z,136
2018-04-24T04:15:41.841Z,144
2018-04-24T04:16:07.279Z,148
2018-04-24T04:16:33.007Z,156
2018-04-24T04:16:58.458Z,160
2018-04-24T04:17:23.948Z,168
2018-04-24T04:17:49.364Z,172
2018-04-24T04:18:14.842Z,180
2018-04-24T04:18:40.352Z,184
2018-04-24T04:19:05.765Z,188
2018-04-24T04:19:31.264Z,192
2018-04-24T04:19:56.763Z,196
2018-04-24T04:20:22.211Z,200
2018-04-24T04:20:47.677Z,200
2018-04-24T04:21:13.125Z,204
2018-04-24T04:21:38.611Z,204
2018-04-24T04:22:04.061Z,204
2018-04-24T04:22:29.553Z,204
2018-04-24T04:22:54.962Z,204
2018-04-24T04:23:20.464Z,204
2018-04-24T04:23:45.931Z,208
2018-04-24T04:24:11.424Z,212
2018-04-24T04:24:36.868Z,216
2018-04-24T04:25:02.371Z,216
2018-04-24T04:25:27.886Z,216
2018-04-24T04:25:53.329Z,224
2018-04-24T04:26:18.784Z,228
2018-04-24T04:26:44.285Z,232
2018-04-24T04:27:09.737Z,244
2018-04-24T04:27:35.177Z,248
2018-04-24T04:28:00.684Z,248
2018-04-24T04:28:26.122Z,252
2018-04-24T04:28:51.576Z,260
2018-04-24T04:29:17.037Z,268
2018-04-24T04:29:42.524Z,280
2018-04-24T04:30:07.984Z,284
2018-04-24T04:30:33.466Z,292
2018-04-24T04:30:58.960Z,300
2018-04-24T04:31:24.459Z,312
2018-04-24T04:31:49.942Z,328
2018-04-24T04:32:15.402Z,340
2018-04-24T04:32:41.009Z,352
2018-04-24T04:33:06.477Z,372
2018-04-24T04:33:32.072Z,376
2018-04-24T04:33:57.629Z,388
2018-04-24T04:34:23.125Z,392
2018-04-24T04:34:48.673Z,404
2018-04-24T04:35:14.338Z,412
2018-04-24T04:35:40.213Z,420
2018-04-24T04:36:05.713Z,424
2018-04-24T04:36:31.296Z,428
2018-04-24T04:36:56.929Z,432
2018-04-24T04:37:22.913Z,428
2018-04-24T04:37:48.452Z,432
2018-04-24T04:38:14.014Z,432
2018-04-24T04:38:39.611Z,436
2018-04-24T04:39:05.640Z,436
2018-04-24T04:39:31.268Z,440
2018-04-24T04:39:56.763Z,440
2018-04-24T04:40:22.881Z,440
2018-04-24T04:40:48.194Z,432
2018-04-24T04:41:13.812Z,436
2018-04-24T04:41:39.534Z,436
2018-04-24T04:42:05.099Z,444
2018-04-24T04:42:30.648Z,464
2018-04-24T04:42:56.463Z,496
2018-04-24T04:43:22.291Z,532
2018-04-24T04:43:47.968Z,568
2018-04-24T04:44:13.758Z,600
2018-04-24T04:44:39.882Z,628
2018-04-24T04:45:06.323Z,656
2018-04-24T04:45:31.660Z,688
2018-04-24T04:45:57.560Z,712
2018-04-24T04:46:24.130Z,720
2018-04-24T04:46:50.144Z,712
2018-04-24T04:47:16.528Z,680
2018-04-24T04:47:42.179Z,640
2018-04-24T04:48:07.904Z,604
2018-04-24T04:48:34.038Z,576
2018-04-24T04:48:59.984Z,568
2018-04-24T04:49:25.990Z,580
2018-04-24T04:49:53.652Z,588
2018-04-24T04:50:19.014Z,588
2018-04-24T04:50:45.209Z,584
2018-04-24T04:51:11.111Z,580
2018-04-24T04:51:37.513Z,576
2018-04-24T04:52:04.097Z,584
2018-04-24T04:52:29.794Z,596
2018-04-24T04:52:55.677Z,616
2018-04-24T04:53:21.564Z,636
2018-04-24T04:53:47.380Z,652
2018-04-24T04:54:12.927Z,672
2018-04-24T04:54:38.352Z,684
2018-04-24T04:55:03.852Z,696
2018-04-24T04:55:29.428Z,712
2018-04-24T04:55:55.005Z,740
2018-04-24T04:56:21.023Z,772
2018-04-24T04:56:46.150Z,812
2018-04-24T04:57:11.698Z,852
2018-04-24T04:57:37.200Z,908
2018-04-24T04:58:02.704Z,972
2018-04-24T04:58:28.176Z,1040
2018-04-24T04:58:53.674Z,1100
2018-04-24T04:59:19.254Z,1152
2018-04-24T04:59:44.764Z,1172
2018-04-24T05:00:10.462Z,1172
2018-04-24T05:00:36.001Z,1172
2018-04-24T05:01:01.583Z,1176
2018-04-24T05:01:27.156Z,1184
2018-04-24T05:01:52.644Z,1172
2018-04-24T05:02:18.196Z,1148
2018-04-24T05:02:43.767Z,1128
2018-04-24T05:03:09.313Z,1124
2018-04-24T05:03:34.893Z,1108
2018-04-24T05:04:00.474Z,1084
2018-04-24T05:04:25.992Z,1064
2018-04-24T05:04:51.625Z,1060
2018-04-24T05:05:17.316Z,1068
2018-04-24T05:05:42.795Z,1072
2018-04-24T05:06:08.506Z,1068
2018-04-24T05:06:34.295Z,1064
2018-04-24T05:07:00.124Z,1064
2018-04-24T05:07:25.741Z,1072
2018-04-24T05:07:51.767Z,1064
2018-04-24T05:08:17.166Z,1060
2018-04-24T05:08:42.974Z,1056
2018-04-24T05:09:08.479Z,1032
2018-04-24T05:09:34.062Z,1008
2018-04-24T05:10:00.204Z,996
2018-04-24T05:10:25.781Z,984
2018-04-24T05:10:51.268Z,972
2018-04-24T05:11:16.749Z,956
2018-04-24T05:11:42.307Z,944
2018-04-24T05:12:07.835Z,944
2018-04-24T05:12:33.285Z,952
2018-04-24T05:12:58.749Z,968
2018-04-24T05:13:24.223Z,1000
2018-04-24T05:13:49.672Z,1032
2018-04-24T05:14:15.161Z,1048
2018-04-24T05:14:40.659Z,1056
2018-04-24T05:15:06.179Z,1068
2018-04-24T05:15:31.653Z,1096
2018-04-24T05:15:57.132Z,1140
2018-04-24T05:16:22.601Z,1192
2018-04-24T05:16:48.157Z,1236
2018-04-24T05:17:13.631Z,1272
2018-04-24T05:17:39.143Z,1280
2018-04-24T05:18:04.638Z,1284
2018-04-24T05:18:30.129Z,1280
2018-04-24T05:18:55.584Z,1272
2018-04-24T05:19:21.082Z,1268
2018-04-24T05:19:46.613Z,1268
2018-04-24T05:20:12.076Z,1268
2018-04-24T05:20:37.530Z,1264
2018-04-24T05:21:03.062Z,1264
2018-04-24T05:21:28.549Z,1264
2018-04-24T05:21:54.054Z,1272
2018-04-24T05:22:19.507Z,1276
2018-04-24T05:22:45.036Z,1280
2018-04-24T05:23:10.496Z,1268
2018-04-24T05:23:35.967Z,1248
2018-04-24T05:24:01.428Z,1228
2018-04-24T05:24:26.934Z,1220
2018-04-24T05:24:52.424Z,1212
2018-04-24T05:25:17.875Z,1204
2018-04-24T05:25:43.332Z,1184
2018-04-24T05:26:08.845Z,1176
2018-04-24T05:26:34.309Z,1192
2018-04-24T05:26:59.739Z,1232
2018-04-24T05:27:25.180Z,1300
2018-04-24T05:27:50.641Z,1372
2018-04-24T05:28:16.147Z,1432
2018-04-24T05:28:41.590Z,1476
2018-04-24T05:29:07.074Z,1504
2018-04-24T05:29:32.553Z,1540
2018-04-24T05:29:58.019Z,1584
2018-04-24T05:30:23.489Z,1624
2018-04-24T05:30:48.962Z,1660
2018-04-24T05:31:57.634Z,1644
2018-04-24T05:32:23.125Z,1600
2018-04-24T05:32:48.616Z,1584
2018-04-24T05:33:14.091Z,1568
2018-04-24T05:33:39.560Z,1544
2018-04-24T05:34:05.031Z,1528
2018-04-24T05:34:30.499Z,1528
2018-04-24T05:34:55.987Z,1524
2018-04-24T05:35:21.447Z,1500
2018-04-24T05:35:47.012Z,1468
2018-04-24T05:36:12.452Z,1432
2018-04-24T05:36:37.976Z,1416
2018-04-24T05:37:03.423Z,1412
2018-04-24T05:37:29.041Z,1408
2018-04-24T05:38:42.683Z,1464
2018-04-24T05:39:08.184Z,1512
2018-04-24T05:39:33.680Z,1560
2018-04-24T05:39:59.131Z,1600
2018-04-24T05:40:24.608Z,1620
2018-04-24T05:40:50.103Z,1636
2018-04-24T05:41:15.599Z,1676
2018-04-24T05:41:41.091Z,1732
2018-04-24T05:42:06.528Z,1772
2018-04-24T05:42:32.017Z,1776
2018-04-24T05:42:57.485Z,1824
2018-04-24T05:43:22.934Z,1900
2018-04-24T05:43:48.410Z,1964
2018-04-24T05:44:13.929Z,2008
2018-04-24T05:44:39.412Z,2040
2018-04-24T05:45:04.901Z,2104
2018-04-24T05:45:30.345Z,2152
2018-04-24T05:45:55.813Z,2172
2018-04-24T05:46:21.263Z,2188
2018-04-24T05:46:46.746Z,2228
2018-04-24T05:47:12.200Z,2264
2018-04-24T05:48:36.205Z,2272
2018-04-24T05:49:01.689Z,2204
2018-04-24T05:49:27.170Z,2112
2018-04-24T05:49:52.661Z,2036
2018-04-24T05:50:18.131Z,2056
2018-04-24T05:50:43.607Z,2144
2018-04-24T05:51:09.063Z,2264
2018-04-24T05:51:34.562Z,2432
2018-04-24T05:52:00.004Z,2600
2018-04-24T05:52:25.476Z,2760
2018-04-24T05:52:50.897Z,2736
2018-04-24T05:53:16.355Z,2704
2018-04-24T05:53:41.827Z,2792
2018-04-24T05:54:07.313Z,2692
2018-04-24T05:54:32.759Z,2456
2018-04-24T05:54:58.213Z,2404
2018-04-24T05:55:23.682Z,2388
2018-04-24T05:55:49.142Z,2508
2018-04-24T05:56:14.615Z,2800
2018-04-24T05:56:40.063Z,3136
2018-04-24T05:57:05.519Z,3328
2018-04-24T05:57:31.004Z,3376
2018-04-24T05:57:56.618Z,3372
2018-04-24T05:58:21.948Z,3452
2018-04-24T05:58:47.419Z,3524
2018-04-24T05:59:12.894Z,3604
2018-04-24T05:59:38.394Z,3648
2018-04-24T06:00:03.902Z,3712
2018-04-24T06:00:29.450Z,3788
2018-04-24T06:00:54.788Z,3796
2018-04-24T06:01:20.240Z,3604
2018-04-24T06:01:45.720Z,3240
2018-04-24T06:02:11.196Z,2920
2018-04-24T06:02:36.667Z,2844
2018-04-24T06:03:02.221Z,2884
2018-04-24T06:03:27.577Z,2892
2018-04-24T06:03:53.055Z,2980
2018-04-24T06:04:18.551Z,3080
2018-04-24T06:04:43.992Z,3084
2018-04-24T06:05:09.469Z,3036
2018-04-24T06:05:34.974Z,2968
2018-04-24T06:06:00.409Z,2888
2018-04-24T06:06:25.882Z,2808
2018-04-24T06:06:51.358Z,2728
2018-04-24T06:07:16.860Z,2668
2018-04-24T06:07:42.342Z,2640
2018-04-24T06:08:07.823Z,2600
2018-04-24T06:08:33.378Z,2576
2018-04-24T06:08:58.792Z,2556
2018-04-24T06:09:24.248Z,2568
2018-04-24T06:09:49.727Z,2624
2018-04-24T06:10:15.222Z,2684
2018-04-24T06:10:40.693Z,2704
2018-04-24T06:11:06.140Z,2696
2018-04-24T06:11:31.615Z,2676
2018-04-24T06:11:57.114Z,2612
2018-04-24T06:12:22.575Z,2524
2018-04-24T06:12:48.039Z,2388
2018-04-24T06:13:13.511Z,2372
2018-04-24T06:13:39.001Z,2404
2018-04-24T06:14:04.459Z,2452
2018-04-24T06:14:29.927Z,2556
2018-04-24T06:14:55.390Z,2648
2018-04-24T06:15:20.871Z,2672
2018-04-24T06:15:46.381Z,2668
2018-04-24T06:16:11.850Z,2640
2018-04-24T06:16:37.349Z,2588
2018-04-24T06:17:02.830Z,2536
2018-04-24T06:17:28.310Z,2508
2018-04-24T06:17:53.777Z,2484
2018-04-24T06:18:19.247Z,2452
2018-04-24T06:18:44.687Z,2432
2018-04-24T06:20:04.119Z,2460
2018-04-24T06:20:29.606Z,2472
2018-04-24T06:20:55.103Z,2544
2018-04-24T06:21:20.620Z,2656
2018-04-24T06:21:46.051Z,2740
2018-04-24T06:22:11.531Z,2740
2018-04-24T06:22:37.098Z,2684
2018-04-24T06:23:02.505Z,2572
2018-04-24T06:23:27.955Z,2412
2018-04-24T06:23:53.434Z,2280
2018-04-24T06:24:18.911Z,2200
2018-04-24T06:24:44.393Z,2140
2018-04-24T06:25:09.884Z,2124
2018-04-24T06:25:35.353Z,2168
2018-04-24T06:26:00.948Z,2232
2018-04-24T06:26:26.395Z,2320
2018-04-24T06:26:51.814Z,2436
2018-04-24T06:27:17.276Z,2560
2018-04-24T06:27:42.768Z,2692
2018-04-24T06:28:08.238Z,2748
2018-04-24T06:28:33.745Z,2680
2018-04-24T06:28:59.177Z,2588
2018-04-24T06:29:24.642Z,2544
2018-04-24T06:29:50.154Z,2556
2018-04-24T06:30:15.604Z,2640
2018-04-24T06:30:41.106Z,2784
2018-04-24T06:31:06.561Z,2884
2018-04-24T06:31:32.163Z,3000
2018-04-24T06:31:57.628Z,3156
2018-04-24T06:32:23.107Z,3320
2018-04-24T06:32:48.561Z,3472
2018-04-24T06:33:14.135Z,3612
2018-04-24T06:33:39.758Z,3752
2018-04-24T06:34:05.242Z,3908
2018-04-24T06:34:30.719Z,3996
2018-04-24T06:34:56.174Z,4100
2018-04-24T06:35:21.646Z,4200
2018-04-24T06:35:47.115Z,4212
2018-04-24T06:36:12.603Z,4132
2018-04-24T06:36:38.046Z,4036
2018-04-24T06:37:03.573Z,3928
2018-04-24T06:37:29.081Z,3820
2018-04-24T06:37:54.562Z,3684
2018-04-24T06:38:20.030Z,3460
2018-04-24T06:38:45.662Z,3240
2018-04-24T06:39:11.266Z,3004
2018-04-24T06:39:36.903Z,2844
2018-04-24T06:40:02.566Z,2776
2018-04-24T06:40:28.054Z,2728
2018-04-24T06:40:53.558Z,2676
2018-04-24T06:41:19.045Z,2656
2018-04-24T06:41:44.505Z,2660
2018-04-24T06:42:10.010Z,2656
2018-04-24T06:42:35.551Z,2608
2018-04-24T06:43:01.065Z,2552
2018-04-24T06:43:26.489Z,2580
2018-04-24T06:43:51.992Z,2696
2018-04-24T06:44:17.488Z,2800
2018-04-24T06:44:42.951Z,2852
2018-04-24T06:45:08.396Z,2772
2018-04-24T06:45:33.871Z,2568
2018-04-24T06:45:59.443Z,2440
2018-04-24T06:46:24.921Z,2548
2018-04-24T06:46:50.404Z,2584
2018-04-24T06:47:15.884Z,2612
2018-04-24T06:47:41.419Z,2752
2018-04-24T06:48:06.812Z,2896
2018-04-24T06:48:32.281Z,3012
2018-04-24T06:48:57.767Z,3144
2018-04-24T06:49:23.214Z,3288
2018-04-24T06:49:48.670Z,3320
2018-04-24T06:50:14.152Z,3288
2018-04-24T06:50:39.653Z,3268
2018-04-24T06:51:05.145Z,3244
2018-04-24T06:51:30.589Z,3136
2018-04-24T06:51:56.040Z,3056
2018-04-24T06:52:21.516Z,3084
2018-04-24T06:52:46.990Z,2996
2018-04-24T06:53:12.445Z,2824
2018-04-24T06:53:37.925Z,2808
2018-04-24T06:54:03.414Z,2940
2018-04-24T06:54:28.936Z,3072
2018-04-24T06:54:54.426Z,3248
2018-04-24T06:55:19.816Z,3364
2018-04-24T06:55:45.298Z,3392
2018-04-24T06:56:10.777Z,3240
2018-04-24T06:56:36.233Z,3140
2018-04-24T06:57:01.689Z,3144
2018-04-24T06:57:27.123Z,3228
2018-04-24T06:57:52.604Z,3372
2018-04-24T06:58:18.093Z,3900
2018-04-24T06:58:43.573Z,4464
2018-04-24T06:59:09.020Z,4840
2018-04-24T06:59:34.513Z,4868
2018-04-24T06:59:59.990Z,4632
2018-04-24T07:00:25.452Z,4168
2018-04-24T07:00:50.944Z,3460
2018-04-24T07:01:16.420Z,2816
2018-04-24T07:01:41.910Z,2484
2018-04-24T07:02:07.378Z,2372
2018-04-24T07:02:32.832Z,2424
2018-04-24T07:02:58.382Z,2628
2018-04-24T07:03:23.876Z,3020
2018-04-24T07:03:49.381Z,3692
2018-04-24T07:04:14.866Z,4360
2018-04-24T07:04:40.350Z,4780
2018-04-24T07:05:05.834Z,4796
2018-04-24T07:05:31.284Z,4580
2018-04-24T07:05:56.760Z,4336
2018-04-24T07:07:10.537Z,3740
2018-04-24T07:07:36.029Z,4032
2018-04-24T07:08:01.496Z,4260
2018-04-24T07:08:27.144Z,4312
2018-04-24T07:08:52.613Z,4540
2018-04-24T07:09:18.082Z,4824
2018-04-24T07:09:43.553Z,4568
2018-04-24T07:10:09.041Z,4504
2018-04-24T07:10:34.502Z,4440
2018-04-24T07:10:59.971Z,4508
2018-04-24T07:11:25.441Z,4664
2018-04-24T07:11:50.888Z,4804
2018-04-24T07:12:16.392Z,4868
2018-04-24T07:12:41.840Z,4524
2018-04-24T07:13:07.290Z,4244
2018-04-24T07:13:32.820Z,3952
2018-04-24T07:13:58.258Z,3624
2018-04-24T07:14:23.797Z,3624
2018-04-24T07:14:49.274Z,3504
2018-04-24T07:15:14.794Z,3416
2018-04-24T07:15:40.336Z,3416
2018-04-24T07:16:05.862Z,3476
2018-04-24T07:16:31.404Z,3744
2018-04-24T07:16:56.951Z,3980
2018-04-24T07:17:22.362Z,4016
2018-04-24T07:17:47.819Z,4096
2018-04-24T07:18:13.305Z,4412
2018-04-24T07:18:38.777Z,4936
2018-04-24T07:19:04.361Z,5480
2018-04-24T07:19:29.934Z,5848
2018-04-24T07:19:55.460Z,6040
2018-04-24T07:20:21.349Z,6180
2018-04-24T07:20:46.965Z,6228
2018-04-24T07:21:12.465Z,6116
2018-04-24T07:21:38.135Z,6340
2018-04-24T07:22:03.575Z,6708
2018-04-24T07:22:29.036Z,6776
2018-04-24T07:22:54.611Z,7176
2018-04-24T07:23:20.203Z,7372
2018-04-24T07:23:45.717Z,7584
2018-04-24T07:24:11.190Z,7756
2018-04-24T07:24:36.667Z,7940
2018-04-24T07:25:02.151Z,7968
2018-04-24T07:25:27.668Z,8232
2018-04-24T07:25:53.103Z,8020
2018-04-24T07:26:18.610Z,7504
2018-04-24T07:26:44.113Z,7016
2018-04-24T07:27:09.638Z,6340
2018-04-24T07:27:35.010Z,5864
2018-04-24T07:28:00.509Z,5424
2018-04-24T07:28:25.991Z,5004
2018-04-24T07:28:51.485Z,4500
2018-04-24T07:29:17.072Z,4004
2018-04-24T07:29:42.717Z,3728
2018-04-24T07:30:08.294Z,3540
2018-04-24T07:30:33.906Z,3624
2018-04-24T07:30:59.397Z,3740
2018-04-24T07:31:25.016Z,3724
2018-04-24T07:31:50.578Z,4108
2018-04-24T07:32:16.160Z,4752
2018-04-24T07:32:41.734Z,5308
2018-04-24T07:33:07.271Z,5876
2018-04-24T07:33:33.099Z,6552
2018-04-24T07:33:58.591Z,6956
2018-04-24T07:34:24.175Z,7024
2018-04-24T07:34:49.679Z,7044
2018-04-24T07:35:15.200Z,6660
2018-04-24T07:35:40.821Z,5896
2018-04-24T07:36:06.678Z,5496
2018-04-24T07:36:32.126Z,5796
2018-04-24T07:36:57.779Z,6124
2018-04-24T07:37:23.495Z,6160
2018-04-24T07:37:48.983Z,6060
2018-04-24T07:38:14.639Z,5860
2018-04-24T07:38:40.425Z,5732
2018-04-24T07:39:06.004Z,5824
2018-04-24T07:39:31.588Z,6060
2018-04-24T07:39:57.202Z,6032
2018-04-24T07:40:22.829Z,5900
2018-04-24T07:40:48.372Z,5836
2018-04-24T07:41:13.939Z,5688
2018-04-24T07:41:39.472Z,5464
2018-04-24T07:42:05.093Z,5280
2018-04-24T07:42:30.697Z,5224
2018-04-24T07:42:56.199Z,5192
2018-04-24T07:43:21.789Z,5216
2018-04-24T07:43:47.390Z,5412
2018-04-24T07:44:12.893Z,5616
2018-04-24T07:44:38.521Z,5708
2018-04-24T07:45:04.105Z,5756
2018-04-24T07:45:29.624Z,5948
2018-04-24T07:45:55.210Z,5988
2018-04-24T07:46:20.712Z,6012
2018-04-24T07:46:46.282Z,5972
2018-04-24T07:47:11.945Z,6120
2018-04-24T07:47:37.629Z,5988
2018-04-24T07:48:03.245Z,6232
2018-04-24T07:48:28.821Z,6500
2018-04-24T07:48:54.531Z,6404
2018-04-24T07:49:19.959Z,6056
2018-04-24T07:49:45.449Z,5736
2018-04-24T07:50:11.356Z,5728
2018-04-24T07:50:36.903Z,5912
2018-04-24T07:51:02.459Z,5888
2018-04-24T07:51:28.191Z,5640
2018-04-24T07:51:53.610Z,5368
2018-04-24T07:52:19.161Z,5440
2018-04-24T07:52:44.742Z,5796
2018-04-24T07:53:10.257Z,6104
2018-04-24T07:53:35.823Z,6284
2018-04-24T07:54:01.442Z,6532
2018-04-24T07:54:27.033Z,6880
2018-04-24T07:54:52.614Z,6836
2018-04-24T07:55:18.136Z,6380
2018-04-24T07:55:43.725Z,6128
2018-04-24T07:56:09.308Z,6356
2018-04-24T07:56:34.863Z,6052
2018-04-24T07:57:00.377Z,5624
2018-04-24T07:57:25.960Z,5436
2018-04-24T07:57:51.683Z,5436
2018-04-24T07:58:17.308Z,5456
2018-04-24T07:58:42.904Z,5388
2018-04-24T07:59:08.423Z,5372
2018-04-24T07:59:33.948Z,5336
2018-04-24T07:59:59.453Z,5380
2018-04-24T08:00:25.070Z,5428
2018-04-24T08:00:50.626Z,5292
2018-04-24T08:01:16.141Z,5092
2018-04-24T08:01:41.774Z,4916
2018-04-24T08:02:07.301Z,4712
2018-04-24T08:02:32.873Z,4452
2018-04-24T08:02:58.438Z,4332
2018-04-24T08:03:24.001Z,4516
2018-04-24T08:03:49.548Z,4808
2018-04-24T08:04:15.063Z,4860
2018-04-24T08:04:40.659Z,4892
2018-04-24T08:05:06.211Z,4944
2018-04-24T08:05:31.755Z,5036
2018-04-24T08:05:57.332Z,5036
2018-04-24T08:06:23.154Z,4808
2018-04-24T08:06:48.660Z,4564
2018-04-24T08:07:14.265Z,4364
2018-04-24T08:07:39.832Z,4292
2018-04-24T08:08:05.445Z,4260
2018-04-24T08:08:31.122Z,4272
2018-04-24T08:08:56.642Z,4580
2018-04-24T08:09:22.212Z,4912
2018-04-24T08:09:47.818Z,4924
2018-04-24T08:10:13.393Z,4824
2018-04-24T08:10:39.063Z,4688
2018-04-24T08:11:04.590Z,4600
2018-04-24T08:11:30.188Z,4648
2018-04-24T08:11:55.784Z,4712
2018-04-24T08:12:21.355Z,4864
2018-04-24T08:12:47.054Z,5004
2018-04-24T08:13:12.611Z,5212
2018-04-24T08:13:38.193Z,5264
2018-04-24T08:14:03.793Z,5312
2018-04-24T08:14:29.270Z,5220
2018-04-24T08:14:54.895Z,5024
2018-04-24T08:15:20.575Z,4924
2018-04-24T08:15:46.083Z,4892
2018-04-24T08:16:11.695Z,4884
2018-04-24T08:16:37.368Z,4800
2018-04-24T08:17:03.099Z,4832
2018-04-24T08:17:28.444Z,4996
2018-04-24T08:17:54.086Z,5272
2018-04-24T08:18:19.657Z,5212
2018-04-24T08:18:45.239Z,5012
2018-04-24T08:19:10.913Z,4972
2018-04-24T08:19:36.471Z,5052
2018-04-24T08:20:02.276Z,5268
2018-04-24T08:20:27.703Z,5372
2018-04-24T08:20:53.274Z,5284
2018-04-24T08:21:18.974Z,5092
2018-04-24T08:21:44.557Z,4948
2018-04-24T08:22:10.110Z,4708
2018-04-24T08:22:35.687Z,4460
2018-04-24T08:23:01.245Z,4228
2018-04-24T08:23:26.811Z,4184
2018-04-24T08:23:52.386Z,4180
2018-04-24T08:24:17.941Z,4240
2018-04-24T08:24:43.548Z,4324
2018-04-24T08:25:09.204Z,4288
2018-04-24T08:25:34.803Z,4284
2018-04-24T08:26:00.289Z,4236
2018-04-24T08:26:25.853Z,4092
2018-04-24T08:26:51.432Z,3968
2018-04-24T08:27:16.956Z,4004
2018-04-24T08:27:42.474Z,4024
2018-04-24T08:28:08.148Z,4004
2018-04-24T08:28:33.855Z,3972
2018-04-24T08:28:59.473Z,3864
2018-04-24T08:29:25.014Z,3864
2018-04-24T08:29:50.492Z,3928
2018-04-24T08:30:16.060Z,4052
2018-04-24T08:30:41.646Z,4192
2018-04-24T08:31:07.200Z,4208
2018-04-24T08:31:32.766Z,4452
2018-04-24T08:31:58.302Z,4756
2018-04-24T08:32:23.893Z,4916
2018-04-24T08:32:49.380Z,4864
2018-04-24T08:33:15.005Z,4652
2018-04-24T08:33:40.769Z,4508
2018-04-24T08:34:06.301Z,4500
2018-04-24T08:34:31.888Z,4448
2018-04-24T08:34:57.511Z,4344
2018-04-24T08:35:23.110Z,4212
2018-04-24T08:35:49.135Z,4148
2018-04-24T08:36:14.791Z,4232
2018-04-24T08:36:40.298Z,4464
2018-04-24T08:37:05.854Z,4712
2018-04-24T08:37:31.612Z,4940
2018-04-24T08:37:57.218Z,5280
2018-04-24T08:38:22.916Z,5700
2018-04-24T08:38:48.524Z,5936
2018-04-24T08:39:14.090Z,5936
2018-04-24T08:39:39.701Z,5844
2018-04-24T08:40:05.350Z,5944
2018-04-24T08:41:29.475Z,7176
2018-04-24T08:41:54.961Z,6796
2018-04-24T08:42:20.439Z,6456
2018-04-24T08:42:45.891Z,6380
2018-04-24T08:43:11.376Z,6384
2018-04-24T08:43:36.853Z,6424
2018-04-24T08:44:02.309Z,6432
2018-04-24T08:44:27.759Z,6384
2018-04-24T08:44:53.208Z,6568
2018-04-24T08:45:18.676Z,6704
2018-04-24T08:45:44.177Z,6928
2018-04-24T08:46:09.619Z,6896
2018-04-24T08:46:35.260Z,6568
2018-04-24T08:47:00.952Z,6312
2018-04-24T08:47:26.513Z,6408
2018-04-24T08:47:52.145Z,6512
2018-04-24T08:48:17.691Z,6440
2018-04-24T08:48:43.362Z,6576
2018-04-24T08:49:08.863Z,6848
2018-04-24T08:49:34.525Z,7052
2018-04-24T08:50:00.029Z,6992
2018-04-24T08:50:25.882Z,7148
2018-04-24T08:50:51.341Z,7440
2018-04-24T08:51:16.938Z,7632
2018-04-24T08:51:42.501Z,7972
2018-04-24T08:52:08.026Z,8452
2018-04-24T08:52:33.571Z,8384
2018-04-24T08:52:59.125Z,7832
2018-04-24T08:53:24.719Z,7160
2018-04-24T08:53:50.258Z,6596
2018-04-24T08:54:15.836Z,6176
2018-04-24T08:54:41.416Z,6072
2018-04-24T08:55:07.153Z,6116
2018-04-24T08:55:32.691Z,5940
2018-04-24T08:55:58.469Z,5728
2018-04-24T08:56:23.986Z,5528
2018-04-24T08:56:49.555Z,5420
2018-04-24T08:57:15.395Z,5232
2018-04-24T08:57:40.981Z,5176
2018-04-24T08:58:06.804Z,5420
2018-04-24T08:58:32.374Z,6016
2018-04-24T08:58:58.043Z,6760
2018-04-24T08:59:23.638Z,7224
2018-04-24T08:59:49.147Z,7424
2018-04-24T09:00:14.768Z,7448
2018-04-24T09:00:40.398Z,7560
2018-04-24T09:01:05.996Z,8212
2018-04-24T09:01:31.696Z,8928
2018-04-24T09:01:57.261Z,9704
2018-04-24T09:02:22.778Z,10284
2018-04-24T09:02:48.391Z,10684
2018-04-24T09:03:13.979Z,10740
2018-04-24T09:03:39.576Z,10740
2018-04-24T09:04:05.425Z,10856
2018-04-24T09:04:31.030Z,11116
2018-04-24T09:04:56.540Z,11048
2018-04-24T09:05:22.090Z,10664
2018-04-24T09:05:47.712Z,10332
2018-04-24T09:06:13.300Z,9968
2018-04-24T09:06:38.877Z,9920
2018-04-24T09:07:04.361Z,10300
2018-04-24T09:07:30.065Z,10976
2018-04-24T09:07:55.762Z,11428
2018-04-24T09:08:21.382Z,10916
2018-04-24T09:08:46.926Z,10716
2018-04-24T09:09:12.514Z,10764
2018-04-24T09:09:38.131Z,10804
2018-04-24T09:10:03.633Z,10768
2018-04-24T09:10:29.312Z,10352
2018-04-24T09:10:54.903Z,10716
2018-04-24T09:11:20.391Z,11248
2018-04-24T09:11:45.896Z,11640
2018-04-24T09:12:11.531Z,12184
2018-04-24T09:12:37.279Z,12616
2018-04-24T09:13:02.881Z,12820
2018-04-24T09:13:28.561Z,12944
2018-04-24T09:13:54.148Z,13000
2018-04-24T09:14:19.722Z,12812
2018-04-24T09:14:45.257Z,12148
2018-04-24T09:15:10.916Z,11432
2018-04-24T09:15:36.521Z,10476
2018-04-24T09:16:02.098Z,9408
2018-04-24T09:16:27.655Z,8628
2018-04-24T09:16:53.242Z,8068
2018-04-24T09:17:18.873Z,7820
2018-04-24T09:17:44.363Z,7848
2018-04-24T09:18:09.948Z,8472
2018-04-24T09:18:35.367Z,8920
2018-04-24T09:19:01.126Z,8696
2018-04-24T09:19:26.723Z,8244
2018-04-24T09:19:52.467Z,7668
2018-04-24T09:20:17.823Z,7488
2018-04-24T09:20:43.471Z,7544
2018-04-24T09:21:09.123Z,7620
2018-04-24T09:21:34.607Z,7796
2018-04-24T09:22:00.209Z,7824
2018-04-24T09:22:25.766Z,7664
2018-04-24T09:22:51.317Z,7440
2018-04-24T09:23:16.876Z,7332
2018-04-24T09:23:42.483Z,7340
2018-04-24T09:24:08.101Z,7372
2018-04-24T09:24:33.791Z,7336
2018-04-24T09:24:59.488Z,7184
2018-04-24T09:25:25.043Z,6864
2018-04-24T09:25:50.575Z,6572
2018-04-24T09:26:16.212Z,6548
2018-04-24T09:26:42.049Z,6716
2018-04-24T09:27:07.515Z,6868
2018-04-24T09:27:33.052Z,7060
2018-04-24T09:27:58.581Z,8000
2018-04-24T09:28:24.384Z,9580
2018-04-24T09:28:50.078Z,10544
2018-04-24T09:29:15.830Z,10764
2018-04-24T09:29:41.366Z,10788
2018-04-24T09:30:06.989Z,10712
2018-04-24T09:30:32.557Z,10852
2018-04-24T09:30:58.159Z,10824
2018-04-24T09:31:23.867Z,10356
2018-04-24T09:31:49.279Z,9904
2018-04-24T09:32:14.821Z,10020
2018-04-24T09:32:40.554Z,10672
2018-04-24T09:33:06.169Z,11256
2018-04-24T09:33:31.854Z,11532
2018-04-24T09:33:57.411Z,11828
2018-04-24T09:34:22.944Z,12444
2018-04-24T09:34:48.577Z,13640
2018-04-24T09:35:14.186Z,14672
2018-04-24T09:35:39.962Z,15212
2018-04-24T09:36:05.549Z,15512
2018-04-24T09:36:31.210Z,15856
2018-04-24T09:36:56.718Z,15860
2018-04-24T09:37:22.334Z,15912
2018-04-24T09:37:47.903Z,16056
2018-04-24T09:38:13.425Z,16056
2018-04-24T09:38:38.991Z,15708
2018-04-24T09:39:04.561Z,15408
2018-04-24T09:39:30.139Z,15184
2018-04-24T09:39:55.765Z,14904
2018-04-24T09:40:21.427Z,14228
2018-04-24T09:40:47.059Z,13660
2018-04-24T09:41:12.696Z,13720
2018-04-24T09:41:38.164Z,13964
2018-04-24T09:42:03.850Z,13788
2018-04-24T09:42:29.476Z,13304
2018-04-24T09:42:55.136Z,12688
2018-04-24T09:43:20.633Z,12060
2018-04-24T09:43:46.217Z,11780
2018-04-24T09:44:11.869Z,10748
2018-04-24T09:44:37.430Z,9864
2018-04-24T09:45:03.025Z,9476
2018-04-24T09:45:28.584Z,8824
2018-04-24T09:45:54.230Z,9024
2018-04-24T09:46:19.688Z,8860
2018-04-24T09:46:45.310Z,8636
2018-04-24T09:47:10.960Z,9324
2018-04-24T09:47:36.618Z,10004
2018-04-24T09:48:02.108Z,10020
2018-04-24T09:48:27.768Z,9640
2018-04-24T09:48:53.239Z,9288
2018-04-24T09:49:19.082Z,9296
2018-04-24T09:49:44.522Z,9208
2018-04-24T09:50:10.161Z,9376
2018-04-24T09:50:35.751Z,9228
2018-04-24T09:51:01.485Z,8780
2018-04-24T09:51:27.123Z,8416
2018-04-24T09:51:52.625Z,8204
2018-04-24T09:52:18.301Z,8208
2018-04-24T09:52:43.831Z,8024
2018-04-24T09:53:09.389Z,7772
2018-04-24T09:53:35.082Z,7496
2018-04-24T09:54:00.627Z,7328
2018-04-24T09:54:26.362Z,7456
2018-04-24T09:54:51.787Z,7820
2018-04-24T09:55:17.465Z,8108